createdAt,value
2018-07-15T00:00:30.163Z,18.05
2018-07-15T00:02:06.045Z,18.05
2018-07-15T00:03:41.663Z,18.03
2018-07-15T00:05:17.251Z,18.05
2018-07-15T00:06:53.232Z,18.03
2018-07-15T00:08:29.335Z,17.98
2018-07-15T00:10:04.975Z,17.85
2018-07-15T00:11:40.615Z,17.78
2018-07-15T00:13:16.192Z,17.78
2018-07-15T00:14:51.763Z,17.81
2018-07-15T00:16:27.580Z,17.82
2018-07-15T00:18:03.275Z,17.88
2018-07-15T00:19:38.928Z,17.74
2018-07-15T00:21:14.997Z,17.69
2018-07-15T00:22:50.579Z,17.71
2018-07-15T00:24:26.187Z,17.77
2018-07-15T00:26:01.893Z,17.76
2018-07-15T00:27:37.586Z,17.70
2018-07-15T00:29:13.169Z,17.65
2018-07-15T00:30:48.769Z,17.65
2018-07-15T00:32:24.454Z,17.65
2018-07-15T00:34:00.144Z,17.54
2018-07-15T00:35:35.752Z,17.53
2018-07-15T00:37:11.369Z,17.52
2018-07-15T00:38:47.086Z,17.46
2018-07-15T00:40:22.690Z,17.47
2018-07-15T00:41:58.323Z,17.48
2018-07-15T00:43:34.035Z,17.46
2018-07-15T00:45:09.627Z,17.49
2018-07-15T00:46:45.195Z,17.42
2018-07-15T00:48:20.998Z,17.43
2018-07-15T00:49:56.966Z,17.49
2018-07-15T00:51:32.634Z,17.52
2018-07-15T00:53:08.634Z,17.55
2018-07-15T00:54:44.283Z,17.52
2018-07-15T00:56:19.991Z,17.46
2018-07-15T00:57:55.780Z,17.42
2018-07-15T00:59:31.904Z,17.40
2018-07-15T01:01:07.477Z,17.38
2018-07-15T01:02:43.112Z,17.41
2018-07-15T01:04:18.758Z,17.11
2018-07-15T01:05:54.638Z,17.37
2018-07-15T01:07:30.383Z,17.33
2018-07-15T01:09:08.059Z,17.23
2018-07-15T01:10:43.746Z,17.26
2018-07-15T01:12:19.324Z,17.29
2018-07-15T01:13:55.128Z,17.31
2018-07-15T01:15:30.720Z,17.29
2018-07-15T01:17:06.335Z,17.28
2018-07-15T01:18:41.921Z,17.39
2018-07-15T01:20:17.639Z,17.39
2018-07-15T01:21:53.287Z,17.34
2018-07-15T01:23:28.991Z,17.34
2018-07-15T01:25:05.136Z,17.31
2018-07-15T01:26:40.706Z,17.26
2018-07-15T01:28:16.583Z,17.21
2018-07-15T01:29:52.379Z,17.19
2018-07-15T01:31:27.968Z,17.25
2018-07-15T01:33:03.647Z,17.33
2018-07-15T01:34:39.251Z,17.36
2018-07-15T01:36:15.141Z,17.37
2018-07-15T01:37:51.339Z,17.33
2018-07-15T01:39:26.938Z,17.28
2018-07-15T01:41:02.502Z,17.31
2018-07-15T01:42:38.467Z,17.26
2018-07-15T01:44:14.051Z,17.21
2018-07-15T01:45:49.642Z,17.19
2018-07-15T01:47:25.450Z,17.05
2018-07-15T01:49:01.091Z,17.06
2018-07-15T01:50:36.654Z,17.00
2018-07-15T01:52:12.298Z,16.96
2018-07-15T01:53:48.041Z,16.69
2018-07-15T01:55:23.804Z,16.98
2018-07-15T01:56:59.471Z,16.92
2018-07-15T01:58:35.375Z,16.99
2018-07-15T02:00:10.951Z,17.00
2018-07-15T02:01:46.578Z,16.95
2018-07-15T02:03:22.235Z,16.84
2018-07-15T02:04:57.811Z,16.82
2018-07-15T02:06:33.403Z,16.76
2018-07-15T02:08:09.002Z,16.67
2018-07-15T02:09:44.855Z,16.68
2018-07-15T02:11:20.658Z,16.70
2018-07-15T02:12:56.223Z,16.62
2018-07-15T02:14:31.915Z,16.59
2018-07-15T02:16:07.811Z,16.58
2018-07-15T02:17:43.480Z,16.60
2018-07-15T02:19:19.039Z,16.58
2018-07-15T02:20:54.785Z,16.60
2018-07-15T02:22:30.391Z,16.58
2018-07-15T02:24:06.090Z,16.58
2018-07-15T02:25:41.915Z,16.60
2018-07-15T02:27:17.667Z,16.57
2018-07-15T02:28:53.259Z,16.53
2018-07-15T02:30:28.843Z,16.49
2018-07-15T02:32:04.427Z,16.47
2018-07-15T02:33:40.053Z,16.48
2018-07-15T02:35:15.670Z,16.49
2018-07-15T02:36:51.348Z,16.48
2018-07-15T02:38:26.948Z,16.45
2018-07-15T02:40:02.581Z,16.41
2018-07-15T02:41:38.395Z,16.39
2018-07-15T02:43:14.089Z,16.42
2018-07-15T02:44:49.710Z,16.38
2018-07-15T02:46:25.387Z,16.40
2018-07-15T02:48:00.988Z,16.40
2018-07-15T02:49:36.558Z,16.38
2018-07-15T02:51:12.191Z,16.30
2018-07-15T02:52:47.847Z,16.36
2018-07-15T02:54:23.402Z,16.33
2018-07-15T02:55:58.975Z,16.32
2018-07-15T02:57:34.703Z,16.31
2018-07-15T02:59:10.367Z,16.30
2018-07-15T03:00:46.181Z,16.32
2018-07-15T03:02:21.870Z,16.33
2018-07-15T03:03:57.439Z,16.30
2018-07-15T03:05:33.019Z,16.35
2018-07-15T03:07:09.015Z,16.25
2018-07-15T03:08:44.651Z,16.25
2018-07-15T03:10:20.249Z,16.24
2018-07-15T03:11:55.867Z,16.23
2018-07-15T03:13:31.445Z,16.19
2018-07-15T03:15:07.197Z,16.18
2018-07-15T03:16:43.001Z,16.20
2018-07-15T03:18:18.727Z,16.18
2018-07-15T03:19:54.313Z,16.16
2018-07-15T03:21:29.941Z,16.20
2018-07-15T03:23:05.619Z,16.16
2018-07-15T03:24:41.275Z,16.13
2018-07-15T03:26:16.858Z,16.16
2018-07-15T03:27:52.443Z,16.27
2018-07-15T03:29:28.016Z,16.27
2018-07-15T03:31:03.927Z,16.34
2018-07-15T03:32:39.659Z,16.41
2018-07-15T03:34:15.316Z,16.47
2018-07-15T03:35:50.874Z,16.48
2018-07-15T03:37:26.464Z,16.59
2018-07-15T03:39:02.023Z,16.70
2018-07-15T03:40:37.627Z,16.71
2018-07-15T03:42:13.210Z,16.73
2018-07-15T03:43:49.283Z,16.89
2018-07-15T03:45:25.031Z,16.92
2018-07-15T03:47:00.778Z,17.02
2018-07-15T03:48:36.937Z,17.08
2018-07-15T03:50:12.588Z,17.12
2018-07-15T03:51:48.215Z,16.96
2018-07-15T03:53:23.887Z,16.93
2018-07-15T03:54:59.471Z,17.06
2018-07-15T03:56:35.075Z,17.01
2018-07-15T03:58:10.947Z,16.90
2018-07-15T03:59:46.741Z,16.87
2018-07-15T04:01:22.371Z,16.78
2018-07-15T04:02:58.060Z,16.61
2018-07-15T04:04:33.831Z,16.81
2018-07-15T04:06:09.452Z,16.85
2018-07-15T04:07:45.193Z,16.86
2018-07-15T04:09:20.767Z,16.95
2018-07-15T04:10:56.315Z,16.93
2018-07-15T04:12:32.099Z,17.01
2018-07-15T04:14:07.690Z,17.00
2018-07-15T04:15:43.299Z,17.00
2018-07-15T04:17:19.039Z,16.89
2018-07-15T04:18:54.692Z,16.86
2018-07-15T04:20:30.319Z,16.83
2018-07-15T04:22:06.016Z,16.86
2018-07-15T04:23:41.640Z,16.80
2018-07-15T04:25:17.277Z,16.77
2018-07-15T04:26:52.846Z,16.78
2018-07-15T04:28:28.472Z,16.81
2018-07-15T04:30:04.146Z,16.80
2018-07-15T04:31:39.713Z,16.89
2018-07-15T04:33:15.350Z,17.02
2018-07-15T04:34:51.106Z,17.15
2018-07-15T04:36:26.717Z,17.07
2018-07-15T04:38:02.441Z,17.15
2018-07-15T04:39:38.066Z,17.21
2018-07-15T04:41:13.632Z,18.64
2018-07-15T04:42:49.629Z,19.42
2018-07-15T04:44:25.218Z,20.66
2018-07-15T04:46:00.887Z,21.01
2018-07-15T04:47:36.482Z,20.49
2018-07-15T04:49:12.083Z,19.41
2018-07-15T04:50:47.710Z,18.94
2018-07-15T04:52:23.375Z,18.67
2018-07-15T04:53:58.974Z,18.44
2018-07-15T04:55:34.569Z,18.61
2018-07-15T04:57:10.194Z,20.07
2018-07-15T04:58:45.799Z,20.86
2018-07-15T05:00:21.370Z,21.06
2018-07-15T05:01:57.024Z,20.47
2018-07-15T05:03:33.019Z,20.53
2018-07-15T05:05:08.615Z,20.26
2018-07-15T05:06:44.626Z,20.06
2018-07-15T05:08:20.408Z,19.43
2018-07-15T05:09:56.062Z,19.41
2018-07-15T05:11:31.618Z,19.26
2018-07-15T05:13:07.243Z,19.18
2018-07-15T05:14:43.004Z,19.46
2018-07-15T05:16:18.579Z,19.58
2018-07-15T05:17:54.143Z,19.69
2018-07-15T05:19:29.757Z,19.81
2018-07-15T05:21:05.310Z,19.87
2018-07-15T05:22:40.967Z,19.93
2018-07-15T05:24:17.251Z,19.83
2018-07-15T05:25:52.892Z,19.86
2018-07-15T05:27:28.490Z,19.93
2018-07-15T05:29:04.096Z,19.79
2018-07-15T05:30:39.687Z,19.83
2018-07-15T05:32:15.470Z,19.82
2018-07-15T05:33:51.460Z,19.66
2018-07-15T05:35:27.137Z,19.57
2018-07-15T05:37:03.177Z,19.61
2018-07-15T05:38:39.005Z,19.65
2018-07-15T05:40:14.767Z,19.51
2018-07-15T05:41:50.911Z,19.63
2018-07-15T05:43:26.951Z,19.75
2018-07-15T05:45:03.736Z,19.69
2018-07-15T05:46:39.461Z,19.63
2018-07-15T05:48:15.347Z,19.30
2018-07-15T05:49:50.962Z,19.15
2018-07-15T05:51:26.550Z,19.05
2018-07-15T05:53:02.224Z,19.17
2018-07-15T05:54:37.901Z,19.11
2018-07-15T05:56:13.645Z,19.07
2018-07-15T05:57:49.485Z,19.06
2018-07-15T05:59:26.205Z,19.15
2018-07-15T06:01:01.811Z,19.34
2018-07-15T06:02:38.139Z,19.31
2018-07-15T06:04:13.717Z,19.25
2018-07-15T06:05:49.584Z,19.35
2018-07-15T06:07:25.186Z,19.28
2018-07-15T06:09:00.806Z,19.36
2018-07-15T06:10:36.413Z,19.63
2018-07-15T06:12:12.111Z,19.86
2018-07-15T06:13:47.655Z,20.30
2018-07-15T06:15:24.333Z,20.63
2018-07-15T06:16:59.919Z,20.57
2018-07-15T06:18:35.887Z,20.48
2018-07-15T06:20:11.489Z,20.45
2018-07-15T06:21:47.384Z,20.57
2018-07-15T06:23:22.997Z,20.37
2018-07-15T06:24:58.559Z,20.25
2018-07-15T06:26:34.238Z,19.93
2018-07-15T06:28:09.836Z,20.16
2018-07-15T06:29:45.459Z,20.10
2018-07-15T06:31:21.047Z,20.33
2018-07-15T06:32:56.598Z,20.34
2018-07-15T06:34:33.256Z,20.30
2018-07-15T06:36:08.806Z,20.12
2018-07-15T06:37:44.505Z,20.05
2018-07-15T06:39:20.076Z,20.07
2018-07-15T06:40:55.630Z,20.09
2018-07-15T06:42:31.232Z,20.09
2018-07-15T06:44:07.253Z,19.98
2018-07-15T06:45:42.863Z,20.02
2018-07-15T06:47:18.657Z,20.21
2018-07-15T06:48:54.225Z,20.28
2018-07-15T06:50:29.796Z,19.99
2018-07-15T06:52:05.502Z,20.27
2018-07-15T06:53:41.371Z,20.37
2018-07-15T06:55:17.116Z,20.58
2018-07-15T06:56:52.886Z,20.68
2018-07-15T06:58:28.595Z,20.76
2018-07-15T07:00:04.381Z,20.76
2018-07-15T07:01:40.006Z,20.56
2018-07-15T07:03:15.852Z,20.62
2018-07-15T07:04:51.550Z,20.56
2018-07-15T07:06:27.347Z,20.60
2018-07-15T07:08:03.492Z,20.44
2018-07-15T07:09:39.079Z,20.64
2018-07-15T07:11:14.627Z,20.48
2018-07-15T07:12:51.363Z,20.56
2018-07-15T07:14:30.252Z,20.61
2018-07-15T07:16:06.133Z,20.70
2018-07-15T07:17:41.728Z,20.80
2018-07-15T07:19:17.475Z,20.80
2018-07-15T07:20:53.054Z,20.74
2018-07-15T07:22:28.993Z,20.79
2018-07-15T07:24:05.876Z,20.79
2018-07-15T07:25:43.970Z,20.90
2018-07-15T07:27:21.049Z,20.93
2018-07-15T07:29:02.729Z,20.90
2018-07-15T07:30:39.895Z,20.89
2018-07-15T07:32:15.688Z,21.00
2018-07-15T07:33:51.682Z,21.00
2018-07-15T07:35:27.326Z,21.22
2018-07-15T07:37:02.869Z,21.35
2018-07-15T07:38:38.899Z,21.27
2018-07-15T07:40:14.631Z,21.26
2018-07-15T07:41:50.479Z,21.30
2018-07-15T07:43:26.113Z,21.28
2018-07-15T07:45:01.716Z,21.20
2018-07-15T07:46:39.508Z,21.26
2018-07-15T07:48:15.088Z,21.41
2018-07-15T07:49:50.718Z,21.56
2018-07-15T07:51:26.260Z,21.47
2018-07-15T07:53:01.828Z,21.43
2018-07-15T07:54:37.679Z,21.37
2018-07-15T07:56:13.359Z,21.45
2018-07-15T07:57:49.036Z,21.45
2018-07-15T07:59:24.797Z,21.47
2018-07-15T08:01:00.502Z,21.60
2018-07-15T08:02:36.311Z,21.65
2018-07-15T08:04:11.967Z,21.61
2018-07-15T08:05:48.071Z,21.62
2018-07-15T08:07:23.990Z,21.69
2018-07-15T08:08:59.735Z,21.70
2018-07-15T08:10:35.570Z,21.80
2018-07-15T08:12:11.419Z,21.74
2018-07-15T08:13:47.073Z,21.71
2018-07-15T08:15:22.763Z,21.54
2018-07-15T08:16:58.631Z,21.68
2018-07-15T08:18:34.458Z,21.75
2018-07-15T08:20:10.263Z,21.91
2018-07-15T08:21:46.065Z,22.05
2018-07-15T08:23:21.681Z,22.05
2018-07-15T08:24:57.282Z,22.22
2018-07-15T08:26:33.026Z,22.29
2018-07-15T08:28:08.671Z,22.37
2018-07-15T08:29:55.616Z,22.31
2018-07-15T08:31:31.239Z,22.36
2018-07-15T08:33:07.094Z,22.27
2018-07-15T08:34:42.990Z,22.36
2018-07-15T08:36:18.879Z,22.37
2018-07-15T08:37:54.791Z,22.59
2018-07-15T08:39:30.399Z,22.53
2018-07-15T08:41:06.100Z,22.42
2018-07-15T08:42:41.838Z,22.31
2018-07-15T08:44:17.574Z,22.37
2018-07-15T08:45:53.280Z,22.31
2018-07-15T08:47:29.203Z,22.42
2018-07-15T08:49:05.931Z,22.44
2018-07-15T08:50:41.798Z,22.52
2018-07-15T08:52:17.841Z,22.53
2018-07-15T08:53:53.478Z,22.41
2018-07-15T08:55:29.653Z,22.43
2018-07-15T08:57:05.686Z,22.49
2018-07-15T08:58:41.680Z,22.49
2018-07-15T09:00:19.098Z,22.64
2018-07-15T09:01:56.126Z,22.58
2018-07-15T09:03:39.478Z,22.60
2018-07-15T09:05:15.428Z,22.64
2018-07-15T09:06:51.267Z,22.60
2018-07-15T09:08:27.413Z,22.58
2018-07-15T09:10:02.989Z,22.61
2018-07-15T09:11:38.643Z,22.62
2018-07-15T09:13:14.500Z,22.59
2018-07-15T09:14:56.704Z,22.69
2018-07-15T09:16:40.924Z,22.66
2018-07-15T09:18:24.829Z,22.76
2018-07-15T09:20:09.499Z,22.67
2018-07-15T09:21:54.083Z,22.76
2018-07-15T09:23:36.840Z,22.94
2018-07-15T09:25:17.662Z,22.99
2018-07-15T09:26:57.362Z,22.98
2018-07-15T09:28:39.804Z,23.07
2018-07-15T09:30:24.409Z,22.98
2018-07-15T09:32:08.110Z,22.93
2018-07-15T09:33:47.212Z,23.03
2018-07-15T09:35:29.203Z,23.13
2018-07-15T09:37:10.894Z,23.26
2018-07-15T09:38:53.782Z,23.18
2018-07-15T09:40:38.131Z,23.23
2018-07-15T09:42:14.889Z,23.32
2018-07-15T09:43:57.489Z,23.36
2018-07-15T09:45:41.713Z,23.39
2018-07-15T09:47:23.218Z,23.13
2018-07-15T09:49:07.350Z,23.18
2018-07-15T09:50:44.800Z,23.45
2018-07-15T09:52:29.185Z,23.41
2018-07-15T09:54:12.059Z,23.51
2018-07-15T09:55:54.599Z,23.54
2018-07-15T09:57:35.436Z,23.56
2018-07-15T09:59:15.806Z,23.67
2018-07-15T10:00:58.968Z,23.59
2018-07-15T10:02:42.324Z,23.65
2018-07-15T10:04:26.119Z,23.77
2018-07-15T10:06:09.155Z,23.74
2018-07-15T10:07:47.829Z,23.76
2018-07-15T10:09:28.231Z,23.69
2018-07-15T10:11:13.328Z,23.73
2018-07-15T10:12:58.128Z,23.69
2018-07-15T10:14:39.172Z,23.78
2018-07-15T10:16:20.918Z,23.93
2018-07-15T10:18:01.878Z,24.01
2018-07-15T10:19:45.321Z,23.95
2018-07-15T10:21:29.503Z,23.96
2018-07-15T10:23:09.002Z,23.89
2018-07-15T10:24:51.320Z,23.85
2018-07-15T10:26:33.951Z,23.86
2018-07-15T10:28:17.334Z,24.03
2018-07-15T10:30:00.850Z,24.04
2018-07-15T10:31:37.256Z,24.07
2018-07-15T10:33:15.680Z,24.10
2018-07-15T10:34:57.530Z,24.19
2018-07-15T10:36:39.413Z,24.28
2018-07-15T10:38:15.775Z,24.27
2018-07-15T10:39:59.512Z,24.30
2018-07-15T10:41:43.353Z,24.29
2018-07-15T10:43:28.667Z,24.20
2018-07-15T10:45:13.661Z,24.29
2018-07-15T10:46:53.037Z,24.40
2018-07-15T10:48:38.156Z,24.52
2018-07-15T10:50:21.658Z,24.55
2018-07-15T10:52:05.625Z,24.63
2018-07-15T10:53:52.531Z,24.77
2018-07-15T10:55:29.427Z,24.88
2018-07-15T10:57:13.062Z,24.96
2018-07-15T10:58:55.656Z,24.83
2018-07-15T11:00:36.727Z,24.72
2018-07-15T11:02:19.762Z,24.83
2018-07-15T11:03:56.489Z,24.90
2018-07-15T11:05:39.320Z,24.80
2018-07-15T11:07:20.260Z,24.83
2018-07-15T11:09:04.452Z,24.84
2018-07-15T11:10:41.712Z,24.79
2018-07-15T11:12:25.372Z,24.83
2018-07-15T11:14:11.260Z,24.88
2018-07-15T11:15:55.973Z,25.00
2018-07-15T11:17:42.842Z,25.00
2018-07-15T11:19:27.082Z,24.90
2018-07-15T11:21:04.649Z,24.92
2018-07-15T11:22:48.239Z,25.08
2018-07-15T11:24:31.856Z,25.07
2018-07-15T11:26:15.460Z,25.05
2018-07-15T11:27:52.263Z,25.14
2018-07-15T11:29:28.206Z,24.98
2018-07-15T11:31:03.884Z,25.02
2018-07-15T11:32:40.035Z,25.09
2018-07-15T11:34:15.640Z,24.95
2018-07-15T11:35:51.467Z,24.96
2018-07-15T11:37:27.440Z,24.95
2018-07-15T11:39:04.894Z,24.92
2018-07-15T11:40:41.196Z,25.03
2018-07-15T11:42:16.835Z,25.31
2018-07-15T11:43:52.583Z,25.36
2018-07-15T11:45:28.533Z,25.30
2018-07-15T11:47:05.141Z,25.16
2018-07-15T11:48:41.172Z,25.13
2018-07-15T11:50:16.848Z,25.16
2018-07-15T11:51:52.736Z,25.40
2018-07-15T11:53:28.504Z,25.45
2018-07-15T11:55:04.123Z,25.43
2018-07-15T11:56:39.833Z,25.45
2018-07-15T11:58:15.598Z,25.47
2018-07-15T11:59:51.759Z,25.65
2018-07-15T12:01:27.436Z,25.70
2018-07-15T12:03:03.031Z,25.78
2018-07-15T12:04:38.899Z,25.85
2018-07-15T12:06:14.855Z,26.05
2018-07-15T12:07:55.992Z,26.07
2018-07-15T12:09:33.748Z,25.92
2018-07-15T12:11:10.232Z,26.02
2018-07-15T12:12:45.924Z,26.20
2018-07-15T12:16:40.657Z,26.40
2018-07-15T12:18:16.595Z,26.15
2018-07-15T12:19:54.670Z,26.04
2018-07-15T12:21:31.278Z,26.12
